sensor_id;sensor_type;location;lat;lon;timestamp;P1;durP1;ratioP1;P2;durP2;ratioP2
13731;SDS011;6937;56.096;12.664;2023-07-13T00:01:04;8.10;;;2.10;;
13731;SDS011;6937;56.096;12.664;2023-07-13T00:03:31;6.50;;;2.20;;
13731;SDS011;6937;56.096;12.664;2023-07-13T00:06:00;7.45;;;2.35;;
13731;SDS011;6937;56.096;12.664;2023-07-13T00:08:29;7.05;;;2.20;;
13731;SDS011;6937;56.096;12.664;2023-07-13T00:10:57;7.95;;;2.38;;
13731;SDS011;6937;56.096;12.664;2023-07-13T00:13:23;8.10;;;2.55;;
13731;SDS011;6937;56.096;12.664;2023-07-13T00:15:48;9.65;;;2.33;;
13731;SDS011;6937;56.096;12.664;2023-07-13T00:18:14;4.53;;;2.17;;
13731;SDS011;6937;56.096;12.664;2023-07-13T00:20:39;7.32;;;2.47;;
13731;SDS011;6937;56.096;12.664;2023-07-13T00:23:06;4.93;;;1.83;;
13731;SDS011;6937;56.096;12.664;2023-07-13T00:25:32;6.10;;;2.30;;
13731;SDS011;6937;56.096;12.664;2023-07-13T00:27:57;7.97;;;2.47;;
13731;SDS011;6937;56.096;12.664;2023-07-13T00:30:22;7.65;;;2.17;;
13731;SDS011;6937;56.096;12.664;2023-07-13T00:32:48;6.18;;;2.67;;
13731;SDS011;6937;56.096;12.664;2023-07-13T00:35:15;8.50;;;2.70;;
13731;SDS011;6937;56.096;12.664;2023-07-13T00:37:41;6.57;;;2.30;;
13731;SDS011;6937;56.096;12.664;2023-07-13T00:40:06;6.75;;;2.05;;
13731;SDS011;6937;56.096;12.664;2023-07-13T00:42:32;10.40;;;2.70;;
13731;SDS011;6937;56.096;12.664;2023-07-13T00:46:09;7.22;;;2.33;;
13731;SDS011;6937;56.096;12.664;2023-07-13T00:47:53;10.13;;;2.35;;
13731;SDS011;6937;56.096;12.664;2023-07-13T00:50:20;7.20;;;2.38;;
13731;SDS011;6937;56.096;12.664;2023-07-13T00:52:48;9.32;;;2.78;;
13731;SDS011;6937;56.096;12.664;2023-07-13T00:55:15;5.82;;;1.90;;
13731;SDS011;6937;56.096;12.664;2023-07-13T00:57:42;6.13;;;2.00;;
13731;SDS011;6937;56.096;12.664;2023-07-13T01:00:09;5.13;;;2.20;;
13731;SDS011;6937;56.096;12.664;2023-07-13T01:02:40;7.55;;;2.28;;
13731;SDS011;6937;56.096;12.664;2023-07-13T01:05:19;7.68;;;2.38;;
13731;SDS011;6937;56.096;12.664;2023-07-13T01:07:46;5.57;;;2.40;;
13731;SDS011;6937;56.096;12.664;2023-07-13T01:10:13;6.00;;;2.40;;
13731;SDS011;6937;56.096;12.664;2023-07-13T01:12:39;9.13;;;2.30;;
13731;SDS011;6937;56.096;12.664;2023-07-13T01:15:06;7.75;;;2.40;;
13731;SDS011;6937;56.096;12.664;2023-07-13T01:18:00;8.70;;;2.72;;
13731;SDS011;6937;56.096;12.664;2023-07-13T01:20:25;7.00;;;2.38;;
13731;SDS011;6937;56.096;12.664;2023-07-13T01:22:51;7.55;;;2.60;;
13731;SDS011;6937;56.096;12.664;2023-07-13T01:25:17;6.05;;;2.10;;
13731;SDS011;6937;56.096;12.664;2023-07-13T01:27:43;7.10;;;2.67;;
13731;SDS011;6937;56.096;12.664;2023-07-13T01:30:08;6.63;;;2.67;;
13731;SDS011;6937;56.096;12.664;2023-07-13T01:32:34;8.13;;;2.63;;
13731;SDS011;6937;56.096;12.664;2023-07-13T01:35:00;6.30;;;2.47;;
13731;SDS011;6937;56.096;12.664;2023-07-13T01:37:25;5.65;;;2.28;;
13731;SDS011;6937;56.096;12.664;2023-07-13T01:39:52;7.93;;;2.53;;
13731;SDS011;6937;56.096;12.664;2023-07-13T01:42:17;8.70;;;2.60;;
13731;SDS011;6937;56.096;12.664;2023-07-13T01:44:43;6.80;;;2.30;;
13731;SDS011;6937;56.096;12.664;2023-07-13T01:47:08;8.20;;;2.50;;
13731;SDS011;6937;56.096;12.664;2023-07-13T01:49:33;5.10;;;2.63;;
13731;SDS011;6937;56.096;12.664;2023-07-13T01:51:59;9.93;;;3.08;;
13731;SDS011;6937;56.096;12.664;2023-07-13T01:54:24;6.28;;;2.55;;
13731;SDS011;6937;56.096;12.664;2023-07-13T01:56:49;6.80;;;2.83;;
13731;SDS011;6937;56.096;12.664;2023-07-13T01:59:15;6.93;;;2.55;;
13731;SDS011;6937;56.096;12.664;2023-07-13T02:01:40;8.13;;;2.85;;
13731;SDS011;6937;56.096;12.664;2023-07-13T02:04:06;8.13;;;2.60;;
13731;SDS011;6937;56.096;12.664;2023-07-13T02:06:31;7.57;;;2.45;;
13731;SDS011;6937;56.096;12.664;2023-07-13T02:08:57;4.32;;;2.22;;
13731;SDS011;6937;56.096;12.664;2023-07-13T02:11:23;9.57;;;2.53;;
13731;SDS011;6937;56.096;12.664;2023-07-13T02:13:49;7.53;;;2.70;;
13731;SDS011;6937;56.096;12.664;2023-07-13T02:16:15;7.80;;;2.55;;
13731;SDS011;6937;56.096;12.664;2023-07-13T02:18:40;6.63;;;2.33;;
13731;SDS011;6937;56.096;12.664;2023-07-13T02:21:06;6.38;;;2.72;;
13731;SDS011;6937;56.096;12.664;2023-07-13T02:23:31;6.65;;;2.35;;
13731;SDS011;6937;56.096;12.664;2023-07-13T02:25:57;7.03;;;2.85;;
13731;SDS011;6937;56.096;12.664;2023-07-13T02:28:24;10.43;;;2.85;;
13731;SDS011;6937;56.096;12.664;2023-07-13T02:30:49;5.85;;;2.70;;
13731;SDS011;6937;56.096;12.664;2023-07-13T02:33:15;8.07;;;2.63;;
13731;SDS011;6937;56.096;12.664;2023-07-13T02:35:41;10.38;;;2.47;;
13731;SDS011;6937;56.096;12.664;2023-07-13T02:38:06;9.52;;;2.70;;
13731;SDS011;6937;56.096;12.664;2023-07-13T02:40:32;6.78;;;2.40;;
13731;SDS011;6937;56.096;12.664;2023-07-13T02:43:01;6.40;;;2.42;;
13731;SDS011;6937;56.096;12.664;2023-07-13T02:45:27;7.47;;;2.78;;
13731;SDS011;6937;56.096;12.664;2023-07-13T02:47:53;7.15;;;2.47;;
13731;SDS011;6937;56.096;12.664;2023-07-13T02:50:18;10.18;;;3.00;;
13731;SDS011;6937;56.096;12.664;2023-07-13T02:52:44;10.32;;;3.00;;
13731;SDS011;6937;56.096;12.664;2023-07-13T02:55:09;5.82;;;2.50;;
13731;SDS011;6937;56.096;12.664;2023-07-13T02:57:35;7.45;;;2.92;;
13731;SDS011;6937;56.096;12.664;2023-07-13T03:00:01;4.88;;;2.50;;
13731;SDS011;6937;56.096;12.664;2023-07-13T03:02:30;9.77;;;3.13;;
13731;SDS011;6937;56.096;12.664;2023-07-13T03:04:57;7.50;;;2.92;;
13731;SDS011;6937;56.096;12.664;2023-07-13T03:07:22;7.32;;;2.92;;
13731;SDS011;6937;56.096;12.664;2023-07-13T03:09:48;8.82;;;2.72;;
13731;SDS011;6937;56.096;12.664;2023-07-13T03:12:13;8.15;;;2.60;;
13731;SDS011;6937;56.096;12.664;2023-07-13T03:14:38;9.02;;;3.05;;
13731;SDS011;6937;56.096;12.664;2023-07-13T03:17:04;9.18;;;3.10;;
13731;SDS011;6937;56.096;12.664;2023-07-13T03:19:29;5.68;;;2.55;;
13731;SDS011;6937;56.096;12.664;2023-07-13T03:21:54;8.02;;;2.70;;
13731;SDS011;6937;56.096;12.664;2023-07-13T03:24:20;8.32;;;2.67;;
13731;SDS011;6937;56.096;12.664;2023-07-13T03:26:45;11.57;;;2.97;;
13731;SDS011;6937;56.096;12.664;2023-07-13T03:29:10;7.55;;;2.97;;
13731;SDS011;6937;56.096;12.664;2023-07-13T03:31:36;7.22;;;2.63;;
13731;SDS011;6937;56.096;12.664;2023-07-13T03:34:03;9.25;;;2.72;;
13731;SDS011;6937;56.096;12.664;2023-07-13T03:36:29;9.02;;;3.10;;
13731;SDS011;6937;56.096;12.664;2023-07-13T03:38:56;6.63;;;2.63;;
13731;SDS011;6937;56.096;12.664;2023-07-13T03:41:23;7.38;;;3.03;;
13731;SDS011;6937;56.096;12.664;2023-07-13T03:43:49;9.10;;;2.53;;
13731;SDS011;6937;56.096;12.664;2023-07-13T03:46:15;6.90;;;2.80;;
13731;SDS011;6937;56.096;12.664;2023-07-13T03:48:41;6.05;;;2.53;;
13731;SDS011;6937;56.096;12.664;2023-07-13T03:51:08;8.15;;;2.67;;
13731;SDS011;6937;56.096;12.664;2023-07-13T03:53:38;8.30;;;2.90;;
13731;SDS011;6937;56.096;12.664;2023-07-13T03:56:04;7.07;;;2.67;;
13731;SDS011;6937;56.096;12.664;2023-07-13T03:58:31;8.30;;;2.80;;
13731;SDS011;6937;56.096;12.664;2023-07-13T04:00:58;6.65;;;2.50;;
13731;SDS011;6937;56.096;12.664;2023-07-13T04:03:24;7.43;;;2.88;;
13731;SDS011;6937;56.096;12.664;2023-07-13T04:05:53;7.25;;;2.58;;
13731;SDS011;6937;56.096;12.664;2023-07-13T04:08:20;6.50;;;2.50;;
13731;SDS011;6937;56.096;12.664;2023-07-13T04:10:45;6.20;;;3.05;;
13731;SDS011;6937;56.096;12.664;2023-07-13T04:13:10;7.10;;;2.80;;
13731;SDS011;6937;56.096;12.664;2023-07-13T04:15:36;5.35;;;2.67;;
13731;SDS011;6937;56.096;12.664;2023-07-13T04:18:01;6.88;;;2.50;;
13731;SDS011;6937;56.096;12.664;2023-07-13T04:20:28;6.63;;;2.60;;
13731;SDS011;6937;56.096;12.664;2023-07-13T04:22:53;8.90;;;3.00;;
13731;SDS011;6937;56.096;12.664;2023-07-13T04:25:20;8.18;;;2.60;;
13731;SDS011;6937;56.096;12.664;2023-07-13T04:27:45;7.55;;;2.67;;
13731;SDS011;6937;56.096;12.664;2023-07-13T04:30:11;7.45;;;2.65;;
13731;SDS011;6937;56.096;12.664;2023-07-13T04:32:36;6.60;;;2.72;;
13731;SDS011;6937;56.096;12.664;2023-07-13T04:35:02;6.05;;;2.72;;
13731;SDS011;6937;56.096;12.664;2023-07-13T04:37:27;8.43;;;2.92;;
13731;SDS011;6937;56.096;12.664;2023-07-13T04:39:54;8.23;;;3.25;;
13731;SDS011;6937;56.096;12.664;2023-07-13T04:42:19;6.63;;;2.65;;
13731;SDS011;6937;56.096;12.664;2023-07-13T04:44:53;7.30;;;2.50;;
13731;SDS011;6937;56.096;12.664;2023-07-13T04:47:19;8.52;;;2.70;;
13731;SDS011;6937;56.096;12.664;2023-07-13T04:49:44;9.38;;;3.17;;
13731;SDS011;6937;56.096;12.664;2023-07-13T04:52:10;6.25;;;2.47;;
13731;SDS011;6937;56.096;12.664;2023-07-13T04:54:36;6.05;;;2.67;;
13731;SDS011;6937;56.096;12.664;2023-07-13T04:57:02;8.75;;;2.38;;
13731;SDS011;6937;56.096;12.664;2023-07-13T04:59:31;7.78;;;3.10;;
13731;SDS011;6937;56.096;12.664;2023-07-13T05:01:56;5.35;;;2.50;;
13731;SDS011;6937;56.096;12.664;2023-07-13T05:04:22;7.10;;;3.00;;
13731;SDS011;6937;56.096;12.664;2023-07-13T05:06:47;7.45;;;3.03;;
13731;SDS011;6937;56.096;12.664;2023-07-13T05:09:13;7.95;;;3.25;;
13731;SDS011;6937;56.096;12.664;2023-07-13T05:11:38;5.70;;;2.35;;
13731;SDS011;6937;56.096;12.664;2023-07-13T05:14:04;4.63;;;2.50;;
13731;SDS011;6937;56.096;12.664;2023-07-13T05:16:29;7.10;;;2.60;;
13731;SDS011;6937;56.096;12.664;2023-07-13T05:18:55;5.53;;;2.17;;
13731;SDS011;6937;56.096;12.664;2023-07-13T05:21:20;8.52;;;2.72;;
13731;SDS011;6937;56.096;12.664;2023-07-13T05:23:46;6.78;;;2.70;;
13731;SDS011;6937;56.096;12.664;2023-07-13T05:26:12;6.88;;;2.70;;
13731;SDS011;6937;56.096;12.664;2023-07-13T05:28:37;6.10;;;2.53;;
13731;SDS011;6937;56.096;12.664;2023-07-13T05:31:04;6.65;;;2.80;;
13731;SDS011;6937;56.096;12.664;2023-07-13T05:33:30;7.85;;;2.38;;
13731;SDS011;6937;56.096;12.664;2023-07-13T05:35:55;6.10;;;2.70;;
13731;SDS011;6937;56.096;12.664;2023-07-13T05:38:21;7.32;;;3.10;;
13731;SDS011;6937;56.096;12.664;2023-07-13T05:40:46;7.20;;;2.55;;
13731;SDS011;6937;56.096;12.664;2023-07-13T05:43:12;3.80;;;2.25;;
13731;SDS011;6937;56.096;12.664;2023-07-13T05:45:38;5.78;;;2.70;;
13731;SDS011;6937;56.096;12.664;2023-07-13T05:48:04;5.68;;;2.90;;
13731;SDS011;6937;56.096;12.664;2023-07-13T05:50:30;4.50;;;2.35;;
13731;SDS011;6937;56.096;12.664;2023-07-13T05:52:55;7.95;;;2.50;;
13731;SDS011;6937;56.096;12.664;2023-07-13T05:55:21;5.82;;;2.28;;
13731;SDS011;6937;56.096;12.664;2023-07-13T05:57:47;7.82;;;2.70;;
13731;SDS011;6937;56.096;12.664;2023-07-13T06:00:12;6.20;;;2.42;;
13731;SDS011;6937;56.096;12.664;2023-07-13T06:02:38;6.55;;;2.53;;
13731;SDS011;6937;56.096;12.664;2023-07-13T06:05:03;5.57;;;2.58;;
13731;SDS011;6937;56.096;12.664;2023-07-13T06:07:29;5.82;;;2.28;;
13731;SDS011;6937;56.096;12.664;2023-07-13T06:09:54;5.47;;;2.13;;
13731;SDS011;6937;56.096;12.664;2023-07-13T06:12:20;6.25;;;2.10;;
13731;SDS011;6937;56.096;12.664;2023-07-13T06:14:45;5.57;;;2.33;;
13731;SDS011;6937;56.096;12.664;2023-07-13T06:17:11;7.05;;;2.67;;
13731;SDS011;6937;56.096;12.664;2023-07-13T06:19:36;7.63;;;2.53;;
13731;SDS011;6937;56.096;12.664;2023-07-13T06:22:01;7.05;;;2.63;;
13731;SDS011;6937;56.096;12.664;2023-07-13T06:24:27;7.93;;;2.40;;
13731;SDS011;6937;56.096;12.664;2023-07-13T06:26:52;6.43;;;2.22;;
13731;SDS011;6937;56.096;12.664;2023-07-13T06:29:17;5.78;;;2.38;;
13731;SDS011;6937;56.096;12.664;2023-07-13T06:31:43;4.82;;;2.25;;
13731;SDS011;6937;56.096;12.664;2023-07-13T06:34:08;5.15;;;2.42;;
13731;SDS011;6937;56.096;12.664;2023-07-13T06:36:34;5.97;;;2.30;;
13731;SDS011;6937;56.096;12.664;2023-07-13T06:39:01;7.38;;;2.38;;
13731;SDS011;6937;56.096;12.664;2023-07-13T06:41:27;7.45;;;2.60;;
13731;SDS011;6937;56.096;12.664;2023-07-13T06:43:53;4.75;;;2.13;;
13731;SDS011;6937;56.096;12.664;2023-07-13T06:46:20;6.05;;;2.00;;
13731;SDS011;6937;56.096;12.664;2023-07-13T06:48:46;6.32;;;2.83;;
13731;SDS011;6937;56.096;12.664;2023-07-13T06:51:11;6.05;;;2.75;;
13731;SDS011;6937;56.096;12.664;2023-07-13T06:53:37;4.18;;;1.98;;
13731;SDS011;6937;56.096;12.664;2023-07-13T06:56:02;8.57;;;2.50;;
13731;SDS011;6937;56.096;12.664;2023-07-13T06:58:28;4.20;;;1.65;;
13731;SDS011;6937;56.096;12.664;2023-07-13T07:00:53;5.75;;;2.25;;
13731;SDS011;6937;56.096;12.664;2023-07-13T07:03:18;5.95;;;2.10;;
13731;SDS011;6937;56.096;12.664;2023-07-13T07:05:44;5.28;;;2.83;;
13731;SDS011;6937;56.096;12.664;2023-07-13T07:08:09;4.93;;;1.90;;
13731;SDS011;6937;56.096;12.664;2023-07-13T07:10:35;5.80;;;2.20;;
13731;SDS011;6937;56.096;12.664;2023-07-13T07:13:02;3.97;;;1.92;;
13731;SDS011;6937;56.096;12.664;2023-07-13T07:15:28;4.85;;;2.03;;
13731;SDS011;6937;56.096;12.664;2023-07-13T07:17:53;4.65;;;1.98;;
13731;SDS011;6937;56.096;12.664;2023-07-13T07:20:19;5.20;;;2.20;;
13731;SDS011;6937;56.096;12.664;2023-07-13T07:22:45;3.92;;;1.60;;
13731;SDS011;6937;56.096;12.664;2023-07-13T07:25:11;5.65;;;1.80;;
13731;SDS011;6937;56.096;12.664;2023-07-13T07:27:36;3.85;;;1.63;;
13731;SDS011;6937;56.096;12.664;2023-07-13T07:30:01;4.13;;;1.88;;
13731;SDS011;6937;56.096;12.664;2023-07-13T07:32:28;4.10;;;1.80;;
13731;SDS011;6937;56.096;12.664;2023-07-13T07:34:54;4.15;;;1.73;;
13731;SDS011;6937;56.096;12.664;2023-07-13T07:37:20;4.78;;;1.67;;
13731;SDS011;6937;56.096;12.664;2023-07-13T07:39:45;3.28;;;1.45;;
13731;SDS011;6937;56.096;12.664;2023-07-13T07:42:10;4.30;;;1.48;;
13731;SDS011;6937;56.096;12.664;2023-07-13T07:44:37;2.80;;;1.40;;
13731;SDS011;6937;56.096;12.664;2023-07-13T07:47:03;6.07;;;2.10;;
13731;SDS011;6937;56.096;12.664;2023-07-13T07:49:29;3.03;;;1.40;;
13731;SDS011;6937;56.096;12.664;2023-07-13T07:51:54;5.50;;;1.80;;
13731;SDS011;6937;56.096;12.664;2023-07-13T07:54:19;7.95;;;2.15;;
13731;SDS011;6937;56.096;12.664;2023-07-13T07:56:45;3.60;;;1.65;;
13731;SDS011;6937;56.096;12.664;2023-07-13T07:59:10;4.82;;;1.90;;
13731;SDS011;6937;56.096;12.664;2023-07-13T08:01:36;4.45;;;1.80;;
13731;SDS011;6937;56.096;12.664;2023-07-13T08:04:02;4.25;;;1.65;;
13731;SDS011;6937;56.096;12.664;2023-07-13T08:06:27;5.05;;;1.88;;
13731;SDS011;6937;56.096;12.664;2023-07-13T08:08:54;4.57;;;1.42;;
13731;SDS011;6937;56.096;12.664;2023-07-13T08:11:20;4.32;;;1.60;;
13731;SDS011;6937;56.096;12.664;2023-07-13T08:13:46;3.83;;;1.70;;
13731;SDS011;6937;56.096;12.664;2023-07-13T08:16:11;3.03;;;1.50;;
13731;SDS011;6937;56.096;12.664;2023-07-13T08:18:37;6.95;;;1.80;;
13731;SDS011;6937;56.096;12.664;2023-07-13T08:21:03;3.97;;;1.58;;
13731;SDS011;6937;56.096;12.664;2023-07-13T08:23:29;3.67;;;1.40;;
13731;SDS011;6937;56.096;12.664;2023-07-13T08:25:55;5.25;;;1.70;;
13731;SDS011;6937;56.096;12.664;2023-07-13T08:28:21;4.25;;;1.90;;
13731;SDS011;6937;56.096;12.664;2023-07-13T08:30:47;4.90;;;1.52;;
13731;SDS011;6937;56.096;12.664;2023-07-13T08:33:16;4.80;;;1.83;;
13731;SDS011;6937;56.096;12.664;2023-07-13T08:35:45;5.00;;;1.88;;
13731;SDS011;6937;56.096;12.664;2023-07-13T08:38:12;4.28;;;1.85;;
13731;SDS011;6937;56.096;12.664;2023-07-13T08:40:37;3.58;;;1.48;;
13731;SDS011;6937;56.096;12.664;2023-07-13T08:43:04;4.07;;;1.58;;
13731;SDS011;6937;56.096;12.664;2023-07-13T08:48:31;4.05;;;1.60;;
13731;SDS011;6937;56.096;12.664;2023-07-13T08:54:01;4.65;;;1.60;;
13731;SDS011;6937;56.096;12.664;2023-07-13T08:56:30;5.57;;;1.83;;
13731;SDS011;6937;56.096;12.664;2023-07-13T08:59:16;3.78;;;1.50;;
13731;SDS011;6937;56.096;12.664;2023-07-13T09:01:47;4.93;;;1.70;;
13731;SDS011;6937;56.096;12.664;2023-07-13T09:04:21;3.28;;;1.50;;
13731;SDS011;6937;56.096;12.664;2023-07-13T09:06:56;3.55;;;1.50;;
13731;SDS011;6937;56.096;12.664;2023-07-13T09:15:26;3.30;;;0.98;;
13731;SDS011;6937;56.096;12.664;2023-07-13T09:17:56;2.72;;;1.35;;
13731;SDS011;6937;56.096;12.664;2023-07-13T09:20:37;2.88;;;1.40;;
13731;SDS011;6937;56.096;12.664;2023-07-13T09:23:10;2.83;;;1.30;;
13731;SDS011;6937;56.096;12.664;2023-07-13T09:25:40;4.53;;;1.30;;
13731;SDS011;6937;56.096;12.664;2023-07-13T09:30:45;3.35;;;1.30;;
13731;SDS011;6937;56.096;12.664;2023-07-13T09:33:18;2.42;;;1.00;;
13731;SDS011;6937;56.096;12.664;2023-07-13T09:35:44;3.50;;;1.20;;
13731;SDS011;6937;56.096;12.664;2023-07-13T09:38:13;3.25;;;1.30;;
13731;SDS011;6937;56.096;12.664;2023-07-13T09:43:33;2.40;;;1.05;;
13731;SDS011;6937;56.096;12.664;2023-07-13T09:45:59;2.67;;;1.13;;
13731;SDS011;6937;56.096;12.664;2023-07-13T09:48:25;2.83;;;0.88;;
13731;SDS011;6937;56.096;12.664;2023-07-13T09:50:58;4.15;;;0.90;;
13731;SDS011;6937;56.096;12.664;2023-07-13T09:53:38;2.08;;;0.98;;
13731;SDS011;6937;56.096;12.664;2023-07-13T09:56:03;2.28;;;1.02;;
13731;SDS011;6937;56.096;12.664;2023-07-13T09:58:29;2.90;;;1.00;;
13731;SDS011;6937;56.096;12.664;2023-07-13T10:01:00;3.17;;;1.00;;
13731;SDS011;6937;56.096;12.664;2023-07-13T10:03:32;2.75;;;1.00;;
13731;SDS011;6937;56.096;12.664;2023-07-13T10:06:12;5.30;;;1.45;;
13731;SDS011;6937;56.096;12.664;2023-07-13T10:08:39;1.98;;;1.15;;
13731;SDS011;6937;56.096;12.664;2023-07-13T10:11:09;6.05;;;1.60;;
13731;SDS011;6937;56.096;12.664;2023-07-13T10:13:37;4.00;;;1.50;;
13731;SDS011;6937;56.096;12.664;2023-07-13T10:16:07;5.00;;;1.60;;
13731;SDS011;6937;56.096;12.664;2023-07-13T10:18:45;4.85;;;1.92;;
13731;SDS011;6937;56.096;12.664;2023-07-13T10:21:20;7.03;;;1.80;;
13731;SDS011;6937;56.096;12.664;2023-07-13T10:23:51;4.28;;;1.88;;
13731;SDS011;6937;56.096;12.664;2023-07-13T10:26:27;5.30;;;1.80;;
13731;SDS011;6937;56.096;12.664;2023-07-13T10:28:57;3.63;;;1.77;;
13731;SDS011;6937;56.096;12.664;2023-07-13T10:31:26;4.43;;;1.70;;
13731;SDS011;6937;56.096;12.664;2023-07-13T10:33:51;3.92;;;1.48;;
13731;SDS011;6937;56.096;12.664;2023-07-13T10:36:20;4.35;;;1.58;;
13731;SDS011;6937;56.096;12.664;2023-07-13T10:38:56;4.82;;;1.48;;
13731;SDS011;6937;56.096;12.664;2023-07-13T10:41:24;4.03;;;1.63;;
13731;SDS011;6937;56.096;12.664;2023-07-13T10:43:53;4.15;;;1.98;;
13731;SDS011;6937;56.096;12.664;2023-07-13T10:46:21;4.45;;;1.98;;
13731;SDS011;6937;56.096;12.664;2023-07-13T10:48:53;4.93;;;2.40;;
13731;SDS011;6937;56.096;12.664;2023-07-13T10:51:30;4.28;;;1.80;;
13731;SDS011;6937;56.096;12.664;2023-07-13T10:56:42;9.30;;;1.60;;
13731;SDS011;6937;56.096;12.664;2023-07-13T11:04:38;4.97;;;1.73;;
13731;SDS011;6937;56.096;12.664;2023-07-13T11:07:11;3.22;;;1.35;;
13731;SDS011;6937;56.096;12.664;2023-07-13T11:09:46;4.70;;;1.38;;
13731;SDS011;6937;56.096;12.664;2023-07-13T11:22:50;5.68;;;1.80;;
13731;SDS011;6937;56.096;12.664;2023-07-13T11:27:51;7.13;;;1.75;;
13731;SDS011;6937;56.096;12.664;2023-07-13T11:33:09;4.50;;;1.60;;
13731;SDS011;6937;56.096;12.664;2023-07-13T11:38:22;6.63;;;1.80;;
13731;SDS011;6937;56.096;12.664;2023-07-13T11:40:53;5.25;;;1.90;;
13731;SDS011;6937;56.096;12.664;2023-07-13T11:43:20;3.38;;;1.20;;
13731;SDS011;6937;56.096;12.664;2023-07-13T11:45:48;4.50;;;1.55;;
13731;SDS011;6937;56.096;12.664;2023-07-13T11:48:33;2.90;;;1.40;;
13731;SDS011;6937;56.096;12.664;2023-07-13T11:51:00;4.78;;;1.70;;
13731;SDS011;6937;56.096;12.664;2023-07-13T11:53:31;3.42;;;1.33;;
13731;SDS011;6937;56.096;12.664;2023-07-13T11:56:04;3.30;;;1.45;;
13731;SDS011;6937;56.096;12.664;2023-07-13T11:58:30;4.75;;;1.30;;
13731;SDS011;6937;56.096;12.664;2023-07-13T12:00:57;3.60;;;1.40;;
13731;SDS011;6937;56.096;12.664;2023-07-13T12:03:26;3.83;;;1.40;;
13731;SDS011;6937;56.096;12.664;2023-07-13T12:06:00;3.53;;;1.40;;
13731;SDS011;6937;56.096;12.664;2023-07-13T12:08:30;3.58;;;1.55;;
13731;SDS011;6937;56.096;12.664;2023-07-13T12:10:57;3.65;;;1.40;;
13731;SDS011;6937;56.096;12.664;2023-07-13T12:13:29;3.63;;;1.38;;
13731;SDS011;6937;56.096;12.664;2023-07-13T12:16:00;4.38;;;1.70;;
13731;SDS011;6937;56.096;12.664;2023-07-13T12:18:29;4.40;;;1.60;;
13731;SDS011;6937;56.096;12.664;2023-07-13T12:20:56;8.35;;;2.10;;
13731;SDS011;6937;56.096;12.664;2023-07-13T12:23:31;4.35;;;1.40;;
13731;SDS011;6937;56.096;12.664;2023-07-13T12:25:59;3.85;;;1.80;;
13731;SDS011;6937;56.096;12.664;2023-07-13T12:28:37;5.00;;;1.52;;
13731;SDS011;6937;56.096;12.664;2023-07-13T12:31:22;5.20;;;1.40;;
13731;SDS011;6937;56.096;12.664;2023-07-13T12:33:57;3.38;;;1.20;;
13731;SDS011;6937;56.096;12.664;2023-07-13T12:36:24;3.95;;;1.15;;
13731;SDS011;6937;56.096;12.664;2023-07-13T12:38:50;5.03;;;1.70;;
13731;SDS011;6937;56.096;12.664;2023-07-13T12:41:16;3.47;;;1.42;;
13731;SDS011;6937;56.096;12.664;2023-07-13T12:43:42;2.55;;;1.40;;
13731;SDS011;6937;56.096;12.664;2023-07-13T12:46:18;4.30;;;1.58;;
13731;SDS011;6937;56.096;12.664;2023-07-13T12:48:48;3.22;;;1.00;;
13731;SDS011;6937;56.096;12.664;2023-07-13T12:51:15;2.47;;;1.33;;
13731;SDS011;6937;56.096;12.664;2023-07-13T12:53:42;2.08;;;1.00;;
13731;SDS011;6937;56.096;12.664;2023-07-13T12:56:16;4.43;;;1.45;;
13731;SDS011;6937;56.096;12.664;2023-07-13T12:58:45;2.60;;;1.20;;
13731;SDS011;6937;56.096;12.664;2023-07-13T13:01:15;5.03;;;1.45;;
13731;SDS011;6937;56.096;12.664;2023-07-13T13:03:45;2.30;;;1.10;;
13731;SDS011;6937;56.096;12.664;2023-07-13T13:08:40;4.05;;;1.50;;
13731;SDS011;6937;56.096;12.664;2023-07-13T13:11:07;4.47;;;1.33;;
13731;SDS011;6937;56.096;12.664;2023-07-13T13:13:34;4.82;;;1.65;;
13731;SDS011;6937;56.096;12.664;2023-07-13T13:16:12;2.25;;;1.30;;
13731;SDS011;6937;56.096;12.664;2023-07-13T13:18:43;2.80;;;1.23;;
13731;SDS011;6937;56.096;12.664;2023-07-13T13:21:09;1.30;;;0.98;;
13731;SDS011;6937;56.096;12.664;2023-07-13T13:23:35;2.63;;;1.02;;
13731;SDS011;6937;56.096;12.664;2023-07-13T13:26:00;2.42;;;1.25;;
13731;SDS011;6937;56.096;12.664;2023-07-13T13:28:27;2.40;;;1.35;;
13731;SDS011;6937;56.096;12.664;2023-07-13T13:30:52;1.13;;;0.80;;
13731;SDS011;6937;56.096;12.664;2023-07-13T13:33:18;1.33;;;0.90;;
13731;SDS011;6937;56.096;12.664;2023-07-13T13:35:46;2.38;;;1.00;;
13731;SDS011;6937;56.096;12.664;2023-07-13T13:38:13;2.88;;;1.13;;
13731;SDS011;6937;56.096;12.664;2023-07-13T13:40:41;3.45;;;0.90;;
13731;SDS011;6937;56.096;12.664;2023-07-13T13:43:26;2.38;;;1.30;;
13731;SDS011;6937;56.096;12.664;2023-07-13T13:45:52;2.65;;;1.20;;
13731;SDS011;6937;56.096;12.664;2023-07-13T13:48:20;2.20;;;1.20;;
13731;SDS011;6937;56.096;12.664;2023-07-13T13:50:55;4.60;;;1.98;;
13731;SDS011;6937;56.096;12.664;2023-07-13T13:53:20;4.85;;;1.80;;
13731;SDS011;6937;56.096;12.664;2023-07-13T13:55:47;7.22;;;2.00;;
13731;SDS011;6937;56.096;12.664;2023-07-13T13:58:12;4.68;;;1.73;;
13731;SDS011;6937;56.096;12.664;2023-07-13T14:00:37;6.88;;;1.67;;
13731;SDS011;6937;56.096;12.664;2023-07-13T14:03:03;3.45;;;1.42;;
13731;SDS011;6937;56.096;12.664;2023-07-13T14:05:29;4.57;;;1.45;;
13731;SDS011;6937;56.096;12.664;2023-07-13T14:07:55;4.28;;;1.30;;
13731;SDS011;6937;56.096;12.664;2023-07-13T14:10:22;3.30;;;1.10;;
13731;SDS011;6937;56.096;12.664;2023-07-13T14:12:51;4.15;;;1.77;;
13731;SDS011;6937;56.096;12.664;2023-07-13T14:15:22;2.08;;;1.10;;
13731;SDS011;6937;56.096;12.664;2023-07-13T14:17:50;3.15;;;1.08;;
13731;SDS011;6937;56.096;12.664;2023-07-13T14:20:17;4.10;;;1.33;;
13731;SDS011;6937;56.096;12.664;2023-07-13T14:22:43;3.05;;;1.40;;
13731;SDS011;6937;56.096;12.664;2023-07-13T14:25:13;4.63;;;1.45;;
13731;SDS011;6937;56.096;12.664;2023-07-13T14:27:40;4.65;;;1.40;;
13731;SDS011;6937;56.096;12.664;2023-07-13T14:30:13;4.55;;;1.40;;
13731;SDS011;6937;56.096;12.664;2023-07-13T14:32:39;4.75;;;1.27;;
13731;SDS011;6937;56.096;12.664;2023-07-13T14:35:05;3.92;;;1.30;;
13731;SDS011;6937;56.096;12.664;2023-07-13T14:37:32;4.57;;;1.13;;
13731;SDS011;6937;56.096;12.664;2023-07-13T14:39:57;5.60;;;1.60;;
13731;SDS011;6937;56.096;12.664;2023-07-13T14:42:23;2.47;;;0.98;;
13731;SDS011;6937;56.096;12.664;2023-07-13T14:44:48;3.10;;;1.00;;
13731;SDS011;6937;56.096;12.664;2023-07-13T14:47:14;2.50;;;1.10;;
13731;SDS011;6937;56.096;12.664;2023-07-13T14:49:40;2.42;;;1.05;;
13731;SDS011;6937;56.096;12.664;2023-07-13T14:52:16;3.95;;;0.80;;
13731;SDS011;6937;56.096;12.664;2023-07-13T14:54:45;3.67;;;1.10;;
13731;SDS011;6937;56.096;12.664;2023-07-13T14:57:12;2.05;;;0.80;;
13731;SDS011;6937;56.096;12.664;2023-07-13T14:59:38;2.95;;;0.70;;
13731;SDS011;6937;56.096;12.664;2023-07-13T15:04:58;2.85;;;0.85;;
13731;SDS011;6937;56.096;12.664;2023-07-13T15:07:23;1.10;;;0.70;;
13731;SDS011;6937;56.096;12.664;2023-07-13T15:09:49;1.55;;;0.63;;
13731;SDS011;6937;56.096;12.664;2023-07-13T15:12:16;1.15;;;0.70;;
13731;SDS011;6937;56.096;12.664;2023-07-13T15:14:41;0.93;;;0.73;;
13731;SDS011;6937;56.096;12.664;2023-07-13T15:17:18;2.22;;;0.70;;
13731;SDS011;6937;56.096;12.664;2023-07-13T15:20:27;2.10;;;0.77;;
13731;SDS011;6937;56.096;12.664;2023-07-13T15:22:55;1.15;;;0.55;;
13731;SDS011;6937;56.096;12.664;2023-07-13T15:25:22;1.15;;;0.90;;
13731;SDS011;6937;56.096;12.664;2023-07-13T15:27:50;1.90;;;0.80;;
13731;SDS011;6937;56.096;12.664;2023-07-13T15:30:18;1.15;;;0.60;;
13731;SDS011;6937;56.096;12.664;2023-07-13T15:32:44;2.10;;;0.77;;
13731;SDS011;6937;56.096;12.664;2023-07-13T15:35:20;0.82;;;0.57;;
13731;SDS011;6937;56.096;12.664;2023-07-13T15:37:50;1.63;;;0.60;;
13731;SDS011;6937;56.096;12.664;2023-07-13T15:40:16;1.83;;;0.68;;